sensor_id;sensor_type;location;lat;lon;timestamp;pressure;altitude;pressure_sealevel;temperature;humidity
53754;BME280;39667;52.274;20.964;2022-12-10T00:02:10;99450.88;;;2.42;72.98
53754;BME280;39667;52.274;20.964;2022-12-10T00:04:39;99455.92;;;2.42;73.04
53754;BME280;39667;52.274;20.964;2022-12-10T00:07:10;99449.31;;;2.40;73.11
53754;BME280;39667;52.274;20.964;2022-12-10T00:09:37;99448.82;;;2.44;73.56
53754;BME280;39667;52.274;20.964;2022-12-10T00:12:04;99446.11;;;2.54;73.55
53754;BME280;39667;52.274;20.964;2022-12-10T00:14:30;99447.54;;;2.58;73.37
53754;BME280;39667;52.274;20.964;2022-12-10T00:16:57;99441.77;;;2.55;72.89
53754;BME280;39667;52.274;20.964;2022-12-10T00:19:23;99440.30;;;2.45;73.08
53754;BME280;39667;52.274;20.964;2022-12-10T00:21:49;99444.50;;;2.47;73.49
53754;BME280;39667;52.274;20.964;2022-12-10T00:24:15;99441.23;;;2.50;73.42
53754;BME280;39667;52.274;20.964;2022-12-10T00:26:42;99438.45;;;2.51;73.38
53754;BME280;39667;52.274;20.964;2022-12-10T00:29:11;99443.79;;;2.45;73.00
53754;BME280;39667;52.274;20.964;2022-12-10T00:31:38;99446.39;;;2.42;73.42
53754;BME280;39667;52.274;20.964;2022-12-10T00:34:07;99446.40;;;2.46;73.30
53754;BME280;39667;52.274;20.964;2022-12-10T00:36:37;99443.76;;;2.40;73.34
53754;BME280;39667;52.274;20.964;2022-12-10T00:39:05;99438.06;;;2.46;73.69
53754;BME280;39667;52.274;20.964;2022-12-10T00:41:31;99443.61;;;2.44;73.35
53754;BME280;39667;52.274;20.964;2022-12-10T00:43:58;99445.84;;;2.41;73.51
53754;BME280;39667;52.274;20.964;2022-12-10T00:46:25;99445.87;;;2.44;73.65
53754;BME280;39667;52.274;20.964;2022-12-10T00:48:52;99443.80;;;2.47;73.74
53754;BME280;39667;52.274;20.964;2022-12-10T00:51:21;99448.02;;;2.52;73.67
53754;BME280;39667;52.274;20.964;2022-12-10T00:53:49;99448.54;;;2.51;73.48
53754;BME280;39667;52.274;20.964;2022-12-10T00:56:21;99446.77;;;2.48;73.42
53754;BME280;39667;52.274;20.964;2022-12-10T00:58:49;99450.60;;;2.50;73.48
53754;BME280;39667;52.274;20.964;2022-12-10T01:01:34;99449.75;;;2.52;73.48
53754;BME280;39667;52.274;20.964;2022-12-10T01:04:04;99450.67;;;2.57;73.78
53754;BME280;39667;52.274;20.964;2022-12-10T01:06:40;99449.68;;;2.64;73.62
53754;BME280;39667;52.274;20.964;2022-12-10T01:09:08;99447.24;;;2.64;73.39
53754;BME280;39667;52.274;20.964;2022-12-10T01:11:38;99445.88;;;2.66;73.26
53754;BME280;39667;52.274;20.964;2022-12-10T01:14:08;99444.11;;;2.63;73.22
53754;BME280;39667;52.274;20.964;2022-12-10T01:16:35;99443.92;;;2.61;73.11
53754;BME280;39667;52.274;20.964;2022-12-10T01:19:02;99447.86;;;2.55;72.98
53754;BME280;39667;52.274;20.964;2022-12-10T01:21:29;99444.52;;;2.49;73.21
53754;BME280;39667;52.274;20.964;2022-12-10T01:23:58;99444.14;;;2.46;73.38
53754;BME280;39667;52.274;20.964;2022-12-10T01:26:28;99438.23;;;2.46;73.50
53754;BME280;39667;52.274;20.964;2022-12-10T01:28:56;99431.67;;;2.52;73.59
53754;BME280;39667;52.274;20.964;2022-12-10T01:31:26;99428.73;;;2.54;73.50
53754;BME280;39667;52.274;20.964;2022-12-10T01:33:53;99426.30;;;2.53;73.29
53754;BME280;39667;52.274;20.964;2022-12-10T01:36:25;99427.71;;;2.56;73.58
53754;BME280;39667;52.274;20.964;2022-12-10T01:38:52;99425.45;;;2.57;73.47
53754;BME280;39667;52.274;20.964;2022-12-10T01:41:48;99422.83;;;2.55;73.47
53754;BME280;39667;52.274;20.964;2022-12-10T01:46:45;99412.98;;;2.60;73.54
53754;BME280;39667;52.274;20.964;2022-12-10T01:49:14;99412.59;;;2.56;73.32
53754;BME280;39667;52.274;20.964;2022-12-10T01:51:45;99411.17;;;2.52;73.43
53754;BME280;39667;52.274;20.964;2022-12-10T01:54:16;99409.59;;;2.50;73.33
53754;BME280;39667;52.274;20.964;2022-12-10T01:56:45;99404.54;;;2.49;73.40
53754;BME280;39667;52.274;20.964;2022-12-10T01:59:12;99405.05;;;2.47;73.44
53754;BME280;39667;52.274;20.964;2022-12-10T02:09:49;99422.11;;;2.51;73.69
53754;BME280;39667;52.274;20.964;2022-12-10T02:12:36;99425.42;;;2.52;73.77
53754;BME280;39667;52.274;20.964;2022-12-10T02:15:17;99420.95;;;2.57;73.81
53754;BME280;39667;52.274;20.964;2022-12-10T02:17:49;99422.36;;;2.60;73.70
53754;BME280;39667;52.274;20.964;2022-12-10T02:20:30;99420.29;;;2.63;73.67
53754;BME280;39667;52.274;20.964;2022-12-10T02:23:04;99424.15;;;2.66;73.70
53754;BME280;39667;52.274;20.964;2022-12-10T02:28:39;99415.83;;;2.69;73.46
53754;BME280;39667;52.274;20.964;2022-12-10T02:31:11;99406.93;;;2.66;73.22
53754;BME280;39667;52.274;20.964;2022-12-10T02:33:44;99412.77;;;2.57;73.27
53754;BME280;39667;52.274;20.964;2022-12-10T02:36:13;99419.55;;;2.55;73.77
53754;BME280;39667;52.274;20.964;2022-12-10T02:38:42;99425.83;;;2.58;73.92
53754;BME280;39667;52.274;20.964;2022-12-10T02:41:14;99424.23;;;2.56;73.62
53754;BME280;39667;52.274;20.964;2022-12-10T02:43:44;99417.98;;;2.56;73.88
53754;BME280;39667;52.274;20.964;2022-12-10T02:46:13;99422.34;;;2.56;73.67
53754;BME280;39667;52.274;20.964;2022-12-10T02:48:40;99423.70;;;2.54;73.77
53754;BME280;39667;52.274;20.964;2022-12-10T02:51:07;99421.25;;;2.52;73.59
53754;BME280;39667;52.274;20.964;2022-12-10T02:53:33;99422.13;;;2.52;73.91
53754;BME280;39667;52.274;20.964;2022-12-10T02:56:08;99419.67;;;2.52;73.78
53754;BME280;39667;52.274;20.964;2022-12-10T03:04:43;99425.48;;;2.58;73.53
53754;BME280;39667;52.274;20.964;2022-12-10T03:07:52;99428.88;;;2.49;73.53
53754;BME280;39667;52.274;20.964;2022-12-10T03:10:55;99426.52;;;2.38;73.64
53754;BME280;39667;52.274;20.964;2022-12-10T03:13:33;99419.20;;;2.35;73.98
53754;BME280;39667;52.274;20.964;2022-12-10T03:16:04;99415.35;;;2.32;73.90
53754;BME280;39667;52.274;20.964;2022-12-10T03:18:32;99414.48;;;2.31;74.01
53754;BME280;39667;52.274;20.964;2022-12-10T03:21:04;99412.05;;;2.34;74.28
53754;BME280;39667;52.274;20.964;2022-12-10T03:23:33;99413.52;;;2.40;74.25
53754;BME280;39667;52.274;20.964;2022-12-10T03:26:02;99414.71;;;2.39;74.08
53754;BME280;39667;52.274;20.964;2022-12-10T03:28:32;99419.88;;;2.32;73.83
53754;BME280;39667;52.274;20.964;2022-12-10T03:31:02;99424.20;;;2.32;74.14
53754;BME280;39667;52.274;20.964;2022-12-10T03:33:30;99421.42;;;2.32;74.12
53754;BME280;39667;52.274;20.964;2022-12-10T03:35:56;99421.09;;;2.33;74.24
53754;BME280;39667;52.274;20.964;2022-12-10T03:38:22;99417.06;;;2.29;73.90
53754;BME280;39667;52.274;20.964;2022-12-10T03:40:48;99421.39;;;2.27;74.25
53754;BME280;39667;52.274;20.964;2022-12-10T03:43:15;99418.99;;;2.32;74.27
53754;BME280;39667;52.274;20.964;2022-12-10T03:45:41;99422.70;;;2.38;74.35
53754;BME280;39667;52.274;20.964;2022-12-10T03:48:07;99418.91;;;2.42;74.22
53754;BME280;39667;52.274;20.964;2022-12-10T03:50:34;99419.77;;;2.41;74.18
53754;BME280;39667;52.274;20.964;2022-12-10T03:53:00;99421.37;;;2.45;74.39
53754;BME280;39667;52.274;20.964;2022-12-10T03:55:27;99420.17;;;2.49;74.27
53754;BME280;39667;52.274;20.964;2022-12-10T03:57:54;99420.53;;;2.49;74.18
53754;BME280;39667;52.274;20.964;2022-12-10T04:00:20;99421.73;;;2.46;74.00
53754;BME280;39667;52.274;20.964;2022-12-10T04:02:46;99420.69;;;2.46;74.32
53754;BME280;39667;52.274;20.964;2022-12-10T04:05:13;99418.95;;;2.47;74.17
53754;BME280;39667;52.274;20.964;2022-12-10T04:07:39;99414.09;;;2.47;74.33
53754;BME280;39667;52.274;20.964;2022-12-10T04:10:07;99418.98;;;2.49;74.06
53754;BME280;39667;52.274;20.964;2022-12-10T04:12:35;99425.59;;;2.51;74.25
53754;BME280;39667;52.274;20.964;2022-12-10T04:15:02;99423.36;;;2.54;74.31
53754;BME280;39667;52.274;20.964;2022-12-10T04:17:46;99420.27;;;2.60;74.27
53754;BME280;39667;52.274;20.964;2022-12-10T04:20:13;99418.20;;;2.60;74.10
53754;BME280;39667;52.274;20.964;2022-12-10T04:22:58;99419.02;;;2.56;73.99
53754;BME280;39667;52.274;20.964;2022-12-10T04:25:43;99423.30;;;2.49;73.93
53754;BME280;39667;52.274;20.964;2022-12-10T04:28:29;99427.25;;;2.42;73.90
53754;BME280;39667;52.274;20.964;2022-12-10T04:30:55;99427.75;;;2.39;74.17
53754;BME280;39667;52.274;20.964;2022-12-10T04:33:21;99430.17;;;2.38;74.11
53754;BME280;39667;52.274;20.964;2022-12-10T04:35:47;99428.31;;;2.25;73.54
53754;BME280;39667;52.274;20.964;2022-12-10T04:38:14;99427.02;;;2.17;74.00
53754;BME280;39667;52.274;20.964;2022-12-10T04:40:40;99425.42;;;2.13;74.20
53754;BME280;39667;52.274;20.964;2022-12-10T04:43:07;99425.91;;;2.09;74.36
53754;BME280;39667;52.274;20.964;2022-12-10T04:45:34;99427.80;;;2.08;74.70
53754;BME280;39667;52.274;20.964;2022-12-10T04:48:01;99419.52;;;2.13;74.91
53754;BME280;39667;52.274;20.964;2022-12-10T04:50:28;99419.73;;;2.15;74.71
53754;BME280;39667;52.274;20.964;2022-12-10T04:52:54;99420.87;;;2.09;74.47
53754;BME280;39667;52.274;20.964;2022-12-10T04:55:21;99425.02;;;2.08;74.79
53754;BME280;39667;52.274;20.964;2022-12-10T04:57:48;99427.77;;;2.04;74.45
53754;BME280;39667;52.274;20.964;2022-12-10T05:00:14;99425.27;;;1.98;74.95
53754;BME280;39667;52.274;20.964;2022-12-10T05:02:40;99425.19;;;2.07;75.34
53754;BME280;39667;52.274;20.964;2022-12-10T05:05:06;99423.34;;;2.12;75.13
53754;BME280;39667;52.274;20.964;2022-12-10T05:07:33;99428.73;;;2.13;75.12
53754;BME280;39667;52.274;20.964;2022-12-10T05:10:00;99431.39;;;2.19;75.14
53754;BME280;39667;52.274;20.964;2022-12-10T05:12:26;99429.50;;;2.21;75.10
53754;BME280;39667;52.274;20.964;2022-12-10T05:14:53;99428.64;;;2.22;75.02
53754;BME280;39667;52.274;20.964;2022-12-10T05:17:19;99429.33;;;2.20;74.81
53754;BME280;39667;52.274;20.964;2022-12-10T05:19:46;99436.59;;;2.17;74.76
53754;BME280;39667;52.274;20.964;2022-12-10T05:22:13;99442.42;;;2.11;74.73
53754;BME280;39667;52.274;20.964;2022-12-10T05:24:57;99442.48;;;2.16;74.97
53754;BME280;39667;52.274;20.964;2022-12-10T05:27:23;99443.71;;;2.17;74.88
53754;BME280;39667;52.274;20.964;2022-12-10T05:29:50;99443.05;;;2.20;74.75
53754;BME280;39667;52.274;20.964;2022-12-10T05:32:16;99446.35;;;2.22;74.76
53754;BME280;39667;52.274;20.964;2022-12-10T05:34:42;99450.02;;;2.24;74.73
53754;BME280;39667;52.274;20.964;2022-12-10T05:37:09;99456.83;;;2.26;74.65
53754;BME280;39667;52.274;20.964;2022-12-10T05:39:35;99463.63;;;2.30;74.78
53754;BME280;39667;52.274;20.964;2022-12-10T05:42:02;99463.11;;;2.31;74.74
53754;BME280;39667;52.274;20.964;2022-12-10T05:44:30;99466.27;;;2.32;74.49
53754;BME280;39667;52.274;20.964;2022-12-10T05:46:57;99463.17;;;2.36;74.68
53754;BME280;39667;52.274;20.964;2022-12-10T05:49:23;99467.05;;;2.42;74.63
53754;BME280;39667;52.274;20.964;2022-12-10T05:51:49;99465.33;;;2.44;74.38
53754;BME280;39667;52.274;20.964;2022-12-10T05:54:15;99469.31;;;2.43;74.32
53754;BME280;39667;52.274;20.964;2022-12-10T05:56:41;99462.00;;;2.41;74.15
53754;BME280;39667;52.274;20.964;2022-12-10T05:59:09;99455.70;;;2.37;74.04
53754;BME280;39667;52.274;20.964;2022-12-10T06:01:42;99458.09;;;2.32;74.09
53754;BME280;39667;52.274;20.964;2022-12-10T06:04:08;99457.40;;;2.33;74.26
53754;BME280;39667;52.274;20.964;2022-12-10T06:06:37;99465.05;;;2.33;74.33
53754;BME280;39667;52.274;20.964;2022-12-10T06:09:06;99468.48;;;2.30;74.26
53754;BME280;39667;52.274;20.964;2022-12-10T06:11:33;99470.04;;;2.28;74.33
53754;BME280;39667;52.274;20.964;2022-12-10T06:13:59;99476.11;;;2.26;74.36
53754;BME280;39667;52.274;20.964;2022-12-10T06:16:28;99476.46;;;2.26;74.21
53754;BME280;39667;52.274;20.964;2022-12-10T06:18:56;99473.13;;;2.23;74.11
53754;BME280;39667;52.274;20.964;2022-12-10T06:21:23;99472.75;;;2.22;74.39
53754;BME280;39667;52.274;20.964;2022-12-10T06:23:50;99472.92;;;2.20;74.00
53754;BME280;39667;52.274;20.964;2022-12-10T06:26:23;99475.42;;;2.10;73.80
53754;BME280;39667;52.274;20.964;2022-12-10T06:28:51;99477.11;;;2.06;74.13
53754;BME280;39667;52.274;20.964;2022-12-10T06:31:18;99478.28;;;2.01;74.14
53754;BME280;39667;52.274;20.964;2022-12-10T06:33:45;99476.38;;;2.02;74.31
53754;BME280;39667;52.274;20.964;2022-12-10T06:36:13;99480.23;;;2.04;74.45
53754;BME280;39667;52.274;20.964;2022-12-10T06:38:40;99486.17;;;2.09;74.41
53754;BME280;39667;52.274;20.964;2022-12-10T06:41:09;99490.60;;;2.16;74.63
53754;BME280;39667;52.274;20.964;2022-12-10T06:43:37;99491.13;;;2.17;74.08
53754;BME280;39667;52.274;20.964;2022-12-10T06:46:07;99490.41;;;2.15;74.01
53754;BME280;39667;52.274;20.964;2022-12-10T06:48:35;99492.10;;;2.10;74.23
53754;BME280;39667;52.274;20.964;2022-12-10T06:51:03;99495.11;;;2.15;74.29
53754;BME280;39667;52.274;20.964;2022-12-10T06:53:31;99495.64;;;2.16;74.13
53754;BME280;39667;52.274;20.964;2022-12-10T06:55:58;99496.85;;;2.15;74.27
53754;BME280;39667;52.274;20.964;2022-12-10T06:58:29;99502.42;;;2.17;74.35
53754;BME280;39667;52.274;20.964;2022-12-10T07:01:05;99502.92;;;2.15;74.25
53754;BME280;39667;52.274;20.964;2022-12-10T07:03:31;99500.95;;;2.10;73.99
53754;BME280;39667;52.274;20.964;2022-12-10T07:05:59;99500.59;;;2.08;74.24
53754;BME280;39667;52.274;20.964;2022-12-10T07:08:26;99500.99;;;2.13;74.44
53754;BME280;39667;52.274;20.964;2022-12-10T07:10:53;99504.12;;;2.14;74.19
53754;BME280;39667;52.274;20.964;2022-12-10T07:13:19;99505.29;;;2.09;74.26
53754;BME280;39667;52.274;20.964;2022-12-10T07:15:45;99502.55;;;2.13;74.64
53754;BME280;39667;52.274;20.964;2022-12-10T07:18:11;99497.20;;;2.16;74.53
53754;BME280;39667;52.274;20.964;2022-12-10T07:20:37;99502.27;;;2.19;74.57
53754;BME280;39667;52.274;20.964;2022-12-10T07:23:05;99496.54;;;2.18;74.42
53754;BME280;39667;52.274;20.964;2022-12-10T07:25:33;99498.80;;;2.20;74.63
53754;BME280;39667;52.274;20.964;2022-12-10T07:27:59;99502.99;;;2.21;74.34
53754;BME280;39667;52.274;20.964;2022-12-10T07:30:25;99501.73;;;2.17;74.23
53754;BME280;39667;52.274;20.964;2022-12-10T07:32:53;99504.17;;;2.18;74.59
53754;BME280;39667;52.274;20.964;2022-12-10T07:35:20;99502.83;;;2.22;74.68
53754;BME280;39667;52.274;20.964;2022-12-10T07:37:46;99500.96;;;2.28;74.63
53754;BME280;39667;52.274;20.964;2022-12-10T07:40:14;99499.64;;;2.33;74.63
53754;BME280;39667;52.274;20.964;2022-12-10T07:42:41;99501.05;;;2.36;74.57
53754;BME280;39667;52.274;20.964;2022-12-10T07:45:07;99502.81;;;2.38;74.45
53754;BME280;39667;52.274;20.964;2022-12-10T07:47:36;99509.79;;;2.41;74.49
53754;BME280;39667;52.274;20.964;2022-12-10T07:50:03;99507.00;;;2.41;74.39
53754;BME280;39667;52.274;20.964;2022-12-10T07:52:30;99508.43;;;2.43;74.41
53754;BME280;39667;52.274;20.964;2022-12-10T07:54:56;99511.23;;;2.45;74.34
53754;BME280;39667;52.274;20.964;2022-12-10T07:57:23;99512.80;;;2.47;74.26
53754;BME280;39667;52.274;20.964;2022-12-10T07:59:51;99510.41;;;2.51;74.33
53754;BME280;39667;52.274;20.964;2022-12-10T08:02:17;99507.65;;;2.54;74.23
53754;BME280;39667;52.274;20.964;2022-12-10T08:04:43;99502.27;;;2.54;74.18
53754;BME280;39667;52.274;20.964;2022-12-10T08:07:09;99500.87;;;2.53;74.20
53754;BME280;39667;52.274;20.964;2022-12-10T08:09:36;99498.09;;;2.54;74.25
53754;BME280;39667;52.274;20.964;2022-12-10T08:12:02;99503.83;;;2.54;74.12
53754;BME280;39667;52.274;20.964;2022-12-10T08:14:28;99501.53;;;2.49;74.01
53754;BME280;39667;52.274;20.964;2022-12-10T08:16:56;99498.91;;;2.49;74.05
53754;BME280;39667;52.274;20.964;2022-12-10T08:19:22;99497.17;;;2.48;74.17
53754;BME280;39667;52.274;20.964;2022-12-10T08:21:56;99496.00;;;2.54;74.29
53754;BME280;39667;52.274;20.964;2022-12-10T08:24:23;99500.37;;;2.56;74.22
53754;BME280;39667;52.274;20.964;2022-12-10T08:26:49;99503.89;;;2.59;74.28
53754;BME280;39667;52.274;20.964;2022-12-10T08:29:16;99499.88;;;2.59;74.14
53754;BME280;39667;52.274;20.964;2022-12-10T08:31:42;99493.45;;;2.59;74.05
53754;BME280;39667;52.274;20.964;2022-12-10T08:34:13;99494.12;;;2.57;74.04
53754;BME280;39667;52.274;20.964;2022-12-10T08:36:41;99493.77;;;2.56;74.07
53754;BME280;39667;52.274;20.964;2022-12-10T08:39:07;99493.95;;;2.56;74.26
53754;BME280;39667;52.274;20.964;2022-12-10T08:41:36;99495.38;;;2.61;74.23
53754;BME280;39667;52.274;20.964;2022-12-10T08:44:02;99495.42;;;2.66;74.10
53754;BME280;39667;52.274;20.964;2022-12-10T08:46:28;99493.36;;;2.70;74.07
53754;BME280;39667;52.274;20.964;2022-12-10T08:48:54;99494.77;;;2.72;73.87
53754;BME280;39667;52.274;20.964;2022-12-10T08:51:21;99498.06;;;2.70;73.81
53754;BME280;39667;52.274;20.964;2022-12-10T08:53:47;99501.55;;;2.70;73.99
53754;BME280;39667;52.274;20.964;2022-12-10T08:56:14;99497.18;;;2.68;73.77
53754;BME280;39667;52.274;20.964;2022-12-10T08:58:41;99496.81;;;2.65;73.69
53754;BME280;39667;52.274;20.964;2022-12-10T09:01:10;99494.48;;;2.59;73.79
53754;BME280;39667;52.274;20.964;2022-12-10T09:03:38;99498.13;;;2.57;73.95
53754;BME280;39667;52.274;20.964;2022-12-10T09:06:07;99499.70;;;2.59;74.13
53754;BME280;39667;52.274;20.964;2022-12-10T09:08:33;99501.48;;;2.63;74.13
53754;BME280;39667;52.274;20.964;2022-12-10T09:11:14;99502.74;;;2.69;74.20
53754;BME280;39667;52.274;20.964;2022-12-10T09:13:41;99506.14;;;2.79;74.13
53754;BME280;39667;52.274;20.964;2022-12-10T09:16:08;99512.27;;;2.83;73.99
53754;BME280;39667;52.274;20.964;2022-12-10T09:18:35;99514.55;;;2.87;73.91
53754;BME280;39667;52.274;20.964;2022-12-10T09:21:11;99515.56;;;2.83;73.61
53754;BME280;39667;52.274;20.964;2022-12-10T09:23:39;99520.42;;;2.82;73.83
53754;BME280;39667;52.274;20.964;2022-12-10T09:26:13;99520.23;;;2.81;73.64
53754;BME280;39667;52.274;20.964;2022-12-10T09:28:41;99519.06;;;2.66;73.41
53754;BME280;39667;52.274;20.964;2022-12-10T09:31:09;99520.63;;;2.65;74.06
53754;BME280;39667;52.274;20.964;2022-12-10T09:33:43;99521.12;;;2.63;73.81
53754;BME280;39667;52.274;20.964;2022-12-10T09:36:11;99519.87;;;2.60;73.90
53754;BME280;39667;52.274;20.964;2022-12-10T09:38:39;99512.05;;;2.59;74.08
53754;BME280;39667;52.274;20.964;2022-12-10T09:44:47;99502.05;;;2.70;74.22
53754;BME280;39667;52.274;20.964;2022-12-10T09:47:18;99500.77;;;2.61;73.88
53754;BME280;39667;52.274;20.964;2022-12-10T09:52:19;99505.61;;;2.59;74.29
53754;BME280;39667;52.274;20.964;2022-12-10T09:54:57;99504.40;;;2.59;74.24
53754;BME280;39667;52.274;20.964;2022-12-10T09:57:41;99503.73;;;2.61;74.32
53754;BME280;39667;52.274;20.964;2022-12-10T10:02:44;99507.84;;;2.75;74.48
53754;BME280;39667;52.274;20.964;2022-12-10T10:05:34;99514.14;;;2.80;74.38
53754;BME280;39667;52.274;20.964;2022-12-10T10:08:11;99521.77;;;2.78;74.12
53754;BME280;39667;52.274;20.964;2022-12-10T10:10:40;99526.66;;;2.79;74.24
53754;BME280;39667;52.274;20.964;2022-12-10T10:15:36;99529.85;;;2.89;74.16
53754;BME280;39667;52.274;20.964;2022-12-10T10:20:56;99526.58;;;2.91;73.95
53754;BME280;39667;52.274;20.964;2022-12-10T10:23:23;99523.98;;;2.93;73.97
53754;BME280;39667;52.274;20.964;2022-12-10T10:25:50;99525.73;;;2.92;73.94
53754;BME280;39667;52.274;20.964;2022-12-10T10:28:20;99526.79;;;2.96;73.97
53754;BME280;39667;52.274;20.964;2022-12-10T10:30:48;99525.21;;;2.94;73.59
53754;BME280;39667;52.274;20.964;2022-12-10T10:33:17;99521.91;;;2.94;73.65
53754;BME280;39667;52.274;20.964;2022-12-10T10:35:48;99524.35;;;2.96;73.74
53754;BME280;39667;52.274;20.964;2022-12-10T10:38:18;99521.64;;;3.04;73.93
53754;BME280;39667;52.274;20.964;2022-12-10T10:40:50;99512.59;;;3.03;73.61
53754;BME280;39667;52.274;20.964;2022-12-10T10:43:25;99511.72;;;3.03;73.52
53754;BME280;39667;52.274;20.964;2022-12-10T10:46:02;99513.10;;;3.01;73.55
53754;BME280;39667;52.274;20.964;2022-12-10T10:48:31;99502.48;;;3.02;73.59
53754;BME280;39667;52.274;20.964;2022-12-10T10:53:42;99494.98;;;2.98;73.26
53754;BME280;39667;52.274;20.964;2022-12-10T10:56:57;99491.67;;;3.00;73.67
53754;BME280;39667;52.274;20.964;2022-12-10T11:01:49;99475.52;;;3.02;73.32
53754;BME280;39667;52.274;20.964;2022-12-10T11:04:18;99473.48;;;3.07;73.69
53754;BME280;39667;52.274;20.964;2022-12-10T11:06:49;99470.54;;;3.10;73.48
53754;BME280;39667;52.274;20.964;2022-12-10T11:09:24;99466.89;;;3.13;73.41
53754;BME280;39667;52.274;20.964;2022-12-10T11:11:59;99465.33;;;3.13;73.45
53754;BME280;39667;52.274;20.964;2022-12-10T11:14:31;99463.40;;;3.11;73.25
53754;BME280;39667;52.274;20.964;2022-12-10T11:19:53;99459.70;;;3.02;73.23
53754;BME280;39667;52.274;20.964;2022-12-10T11:22:26;99460.76;;;3.04;73.53
53754;BME280;39667;52.274;20.964;2022-12-10T11:24:53;99467.04;;;3.08;73.40
53754;BME280;39667;52.274;20.964;2022-12-10T11:33:38;99461.25;;;3.00;72.73
53754;BME280;39667;52.274;20.964;2022-12-10T11:39:29;99457.93;;;2.97;73.26
53754;BME280;39667;52.274;20.964;2022-12-10T11:42:10;99456.38;;;3.00;73.28
53754;BME280;39667;52.274;20.964;2022-12-10T11:45:03;99458.95;;;2.94;73.33
53754;BME280;39667;52.274;20.964;2022-12-10T11:50:44;99465.55;;;2.94;73.14
53754;BME280;39667;52.274;20.964;2022-12-10T11:56:24;99464.00;;;2.96;73.13
53754;BME280;39667;52.274;20.964;2022-12-10T12:04:28;99468.23;;;3.06;73.09
53754;BME280;39667;52.274;20.964;2022-12-10T12:15:44;99477.70;;;2.91;72.79
53754;BME280;39667;52.274;20.964;2022-12-10T12:18:33;99482.70;;;2.86;72.87
53754;BME280;39667;52.274;20.964;2022-12-10T12:21:05;99482.35;;;2.84;73.02
53754;BME280;39667;52.274;20.964;2022-12-10T12:24:00;99480.95;;;2.82;72.92
53754;BME280;39667;52.274;20.964;2022-12-10T12:26:37;99479.88;;;2.80;72.76
53754;BME280;39667;52.274;20.964;2022-12-10T12:32:11;99477.36;;;2.68;73.02
53754;BME280;39667;52.274;20.964;2022-12-10T12:37:12;99481.14;;;2.63;72.88
53754;BME280;39667;52.274;20.964;2022-12-10T12:39:50;99486.74;;;2.48;72.53
53754;BME280;39667;52.274;20.964;2022-12-10T12:42:24;99490.67;;;2.41;73.11
53754;BME280;39667;52.274;20.964;2022-12-10T12:53:16;99496.30;;;2.47;73.62
53754;BME280;39667;52.274;20.964;2022-12-10T12:58:31;99499.73;;;2.61;73.56
53754;BME280;39667;52.274;20.964;2022-12-10T13:01:13;99506.38;;;2.66;73.48
53754;BME280;39667;52.274;20.964;2022-12-10T13:03:43;99510.21;;;2.68;73.44
53754;BME280;39667;52.274;20.964;2022-12-10T13:08:48;99517.56;;;2.75;73.21
53754;BME280;39667;52.274;20.964;2022-12-10T13:11:38;99520.67;;;2.70;73.11
53754;BME280;39667;52.274;20.964;2022-12-10T13:22:10;99527.76;;;2.86;73.15
53754;BME280;39667;52.274;20.964;2022-12-10T13:42:44;99549.88;;;2.70;73.02
53754;BME280;39667;52.274;20.964;2022-12-10T13:45:35;99547.44;;;2.69;72.90
53754;BME280;39667;52.274;20.964;2022-12-10T13:50:45;99549.45;;;2.63;72.77
53754;BME280;39667;52.274;20.964;2022-12-10T13:53:52;99547.83;;;2.56;72.87
53754;BME280;39667;52.274;20.964;2022-12-10T13:56:29;99548.34;;;2.56;73.04
53754;BME280;39667;52.274;20.964;2022-12-10T14:01:55;99550.15;;;2.63;73.00
53754;BME280;39667;52.274;20.964;2022-12-10T14:07:12;99547.75;;;2.66;72.65
53754;BME280;39667;52.274;20.964;2022-12-10T14:09:49;99544.78;;;2.65;72.54
53754;BME280;39667;52.274;20.964;2022-12-10T14:12:23;99544.05;;;2.61;72.53
53754;BME280;39667;52.274;20.964;2022-12-10T14:15:03;99546.96;;;2.55;72.49
53754;BME280;39667;52.274;20.964;2022-12-10T14:17:34;99543.98;;;2.54;72.46
53754;BME280;39667;52.274;20.964;2022-12-10T14:20:05;99542.40;;;2.52;72.46
53754;BME280;39667;52.274;20.964;2022-12-10T14:22:38;99543.27;;;2.53;72.60
53754;BME280;39667;52.274;20.964;2022-12-10T14:25:15;99544.14;;;2.53;72.67
53754;BME280;39667;52.274;20.964;2022-12-10T14:27:46;99544.17;;;2.55;72.63
53754;BME280;39667;52.274;20.964;2022-12-10T14:30:19;99546.98;;;2.59;72.61
53754;BME280;39667;52.274;20.964;2022-12-10T14:32:46;99549.58;;;2.56;72.41
53754;BME280;39667;52.274;20.964;2022-12-10T14:35:17;99547.13;;;2.55;72.38
53754;BME280;39667;52.274;20.964;2022-12-10T14:37:52;99546.41;;;2.55;72.43
53754;BME280;39667;52.274;20.964;2022-12-10T14:40:24;99543.14;;;2.56;72.42
53754;BME280;39667;52.274;20.964;2022-12-10T14:42:55;99541.02;;;2.53;72.23
53754;BME280;39667;52.274;20.964;2022-12-10T14:45:31;99542.54;;;2.48;72.32
53754;BME280;39667;52.274;20.964;2022-12-10T14:48:03;99545.83;;;2.47;72.40
53754;BME280;39667;52.274;20.964;2022-12-10T14:50:37;99542.69;;;2.46;72.32
53754;BME280;39667;52.274;20.964;2022-12-10T14:53:08;99540.64;;;2.50;72.33
53754;BME280;39667;52.274;20.964;2022-12-10T14:55:38;99535.79;;;2.52;72.34
53754;BME280;39667;52.274;20.964;2022-12-10T14:58:05;99534.07;;;2.54;72.05
53754;BME280;39667;52.274;20.964;2022-12-10T15:00:35;99538.06;;;2.53;72.06
53754;BME280;39667;52.274;20.964;2022-12-10T15:03:08;99540.09;;;2.47;71.71
53754;BME280;39667;52.274;20.964;2022-12-10T15:05:37;99533.61;;;2.41;72.08
53754;BME280;39667;52.274;20.964;2022-12-10T15:08:14;99538.80;;;2.40;71.88
53754;BME280;39667;52.274;20.964;2022-12-10T15:10:45;99543.64;;;2.38;71.78
53754;BME280;39667;52.274;20.964;2022-12-10T15:13:39;99547.23;;;2.31;71.69
53754;BME280;39667;52.274;20.964;2022-12-10T15:16:13;99547.34;;;2.27;71.84
53754;BME280;39667;52.274;20.964;2022-12-10T15:18:41;99548.37;;;2.25;71.90
53754;BME280;39667;52.274;20.964;2022-12-10T15:21:15;99538.27;;;2.24;72.02
53754;BME280;39667;52.274;20.964;2022-12-10T15:23:44;99535.91;;;2.30;72.12